sensor_id;sensor_type;location;lat;lon;timestamp;temperature;humidity
19200;DHT22;9732;52.498;5.408;2022-10-28T00:01:36;16.70;99.90
19200;DHT22;9732;52.498;5.408;2022-10-28T00:04:03;16.70;99.90
19200;DHT22;9732;52.498;5.408;2022-10-28T00:06:32;16.70;99.90
19200;DHT22;9732;52.498;5.408;2022-10-28T00:08:59;16.70;99.90
19200;DHT22;9732;52.498;5.408;2022-10-28T00:11:27;16.70;99.90
19200;DHT22;9732;52.498;5.408;2022-10-28T00:13:56;16.70;99.90
19200;DHT22;9732;52.498;5.408;2022-10-28T00:16:25;16.70;99.90
19200;DHT22;9732;52.498;5.408;2022-10-28T00:18:54;16.70;99.90
19200;DHT22;9732;52.498;5.408;2022-10-28T00:21:23;16.70;99.90
19200;DHT22;9732;52.498;5.408;2022-10-28T00:23:51;16.70;99.90
19200;DHT22;9732;52.498;5.408;2022-10-28T00:26:22;16.60;99.90
19200;DHT22;9732;52.498;5.408;2022-10-28T00:28:51;16.60;99.90
19200;DHT22;9732;52.498;5.408;2022-10-28T00:31:20;16.60;99.90
19200;DHT22;9732;52.498;5.408;2022-10-28T00:33:47;16.60;99.90
19200;DHT22;9732;52.498;5.408;2022-10-28T00:36:17;16.60;99.90
19200;DHT22;9732;52.498;5.408;2022-10-28T00:38:46;16.60;99.90
19200;DHT22;9732;52.498;5.408;2022-10-28T00:41:16;16.60;99.90
19200;DHT22;9732;52.498;5.408;2022-10-28T00:43:44;16.60;99.90
19200;DHT22;9732;52.498;5.408;2022-10-28T00:46:23;16.60;99.90
19200;DHT22;9732;52.498;5.408;2022-10-28T00:48:53;16.50;99.90
19200;DHT22;9732;52.498;5.408;2022-10-28T00:51:23;16.50;99.90
19200;DHT22;9732;52.498;5.408;2022-10-28T00:53:51;16.50;99.90
19200;DHT22;9732;52.498;5.408;2022-10-28T00:56:19;16.50;99.90
19200;DHT22;9732;52.498;5.408;2022-10-28T00:58:47;16.50;99.90
19200;DHT22;9732;52.498;5.408;2022-10-28T01:01:15;16.50;99.90
19200;DHT22;9732;52.498;5.408;2022-10-28T01:03:42;16.60;99.90
19200;DHT22;9732;52.498;5.408;2022-10-28T01:06:09;16.50;99.90
19200;DHT22;9732;52.498;5.408;2022-10-28T01:08:37;16.50;99.90
19200;DHT22;9732;52.498;5.408;2022-10-28T01:14:19;16.50;99.90
19200;DHT22;9732;52.498;5.408;2022-10-28T01:16:58;16.60;99.90
19200;DHT22;9732;52.498;5.408;2022-10-28T01:20:19;16.60;99.90
19200;DHT22;9732;52.498;5.408;2022-10-28T01:22:49;16.60;99.90
19200;DHT22;9732;52.498;5.408;2022-10-28T01:25:36;16.60;99.90
19200;DHT22;9732;52.498;5.408;2022-10-28T01:28:27;16.60;99.90
19200;DHT22;9732;52.498;5.408;2022-10-28T01:31:07;16.60;99.90
19200;DHT22;9732;52.498;5.408;2022-10-28T01:33:42;16.60;99.90
19200;DHT22;9732;52.498;5.408;2022-10-28T01:36:14;16.60;99.90
19200;DHT22;9732;52.498;5.408;2022-10-28T01:38:49;16.60;99.90
19200;DHT22;9732;52.498;5.408;2022-10-28T01:41:22;16.60;99.90
19200;DHT22;9732;52.498;5.408;2022-10-28T01:43:57;16.70;99.90
19200;DHT22;9732;52.498;5.408;2022-10-28T01:46:30;16.60;99.90
19200;DHT22;9732;52.498;5.408;2022-10-28T01:49:06;16.60;99.90
19200;DHT22;9732;52.498;5.408;2022-10-28T01:51:37;16.60;99.90
19200;DHT22;9732;52.498;5.408;2022-10-28T01:54:06;16.60;99.90
19200;DHT22;9732;52.498;5.408;2022-10-28T01:56:36;16.60;99.90
19200;DHT22;9732;52.498;5.408;2022-10-28T01:59:09;16.60;99.90
19200;DHT22;9732;52.498;5.408;2022-10-28T02:01:38;16.60;99.90
19200;DHT22;9732;52.498;5.408;2022-10-28T02:04:04;16.60;99.90
19200;DHT22;9732;52.498;5.408;2022-10-28T02:06:32;16.60;99.90
19200;DHT22;9732;52.498;5.408;2022-10-28T02:09:09;16.60;99.90
19200;DHT22;9732;52.498;5.408;2022-10-28T02:11:55;16.60;99.90
19200;DHT22;9732;52.498;5.408;2022-10-28T02:14:51;16.60;99.90
19200;DHT22;9732;52.498;5.408;2022-10-28T02:17:29;16.60;99.90
19200;DHT22;9732;52.498;5.408;2022-10-28T02:20:05;16.60;99.90
19200;DHT22;9732;52.498;5.408;2022-10-28T02:22:41;16.60;99.90
19200;DHT22;9732;52.498;5.408;2022-10-28T02:25:15;16.60;99.90
19200;DHT22;9732;52.498;5.408;2022-10-28T02:27:48;16.50;99.90
19200;DHT22;9732;52.498;5.408;2022-10-28T02:30:20;16.60;99.90
19200;DHT22;9732;52.498;5.408;2022-10-28T02:32:51;16.60;99.90
19200;DHT22;9732;52.498;5.408;2022-10-28T02:35:24;16.50;99.90
19200;DHT22;9732;52.498;5.408;2022-10-28T02:37:54;16.50;99.90
19200;DHT22;9732;52.498;5.408;2022-10-28T02:40:24;16.50;99.90
19200;DHT22;9732;52.498;5.408;2022-10-28T02:42:54;16.40;99.90
19200;DHT22;9732;52.498;5.408;2022-10-28T02:45:27;16.50;99.90
19200;DHT22;9732;52.498;5.408;2022-10-28T02:47:58;16.50;99.90
19200;DHT22;9732;52.498;5.408;2022-10-28T02:50:29;16.40;99.90
19200;DHT22;9732;52.498;5.408;2022-10-28T02:52:59;16.40;99.90
19200;DHT22;9732;52.498;5.408;2022-10-28T02:55:31;16.40;99.90
19200;DHT22;9732;52.498;5.408;2022-10-28T02:58:00;16.40;99.90
19200;DHT22;9732;52.498;5.408;2022-10-28T03:00:27;16.40;99.90
19200;DHT22;9732;52.498;5.408;2022-10-28T03:02:53;16.40;99.90
19200;DHT22;9732;52.498;5.408;2022-10-28T03:05:21;16.40;99.90
19200;DHT22;9732;52.498;5.408;2022-10-28T03:07:48;16.40;99.90
19200;DHT22;9732;52.498;5.408;2022-10-28T03:10:15;16.30;99.90
19200;DHT22;9732;52.498;5.408;2022-10-28T03:12:42;16.30;99.90
19200;DHT22;9732;52.498;5.408;2022-10-28T03:15:09;16.30;99.90
19200;DHT22;9732;52.498;5.408;2022-10-28T03:17:36;16.30;99.90
19200;DHT22;9732;52.498;5.408;2022-10-28T03:20:03;16.30;99.90
19200;DHT22;9732;52.498;5.408;2022-10-28T03:22:32;16.30;99.90
19200;DHT22;9732;52.498;5.408;2022-10-28T03:24:58;16.30;99.90
19200;DHT22;9732;52.498;5.408;2022-10-28T03:27:25;16.30;99.90
19200;DHT22;9732;52.498;5.408;2022-10-28T03:29:52;16.20;99.90
19200;DHT22;9732;52.498;5.408;2022-10-28T03:32:19;16.30;99.90
19200;DHT22;9732;52.498;5.408;2022-10-28T03:34:45;16.30;99.90
19200;DHT22;9732;52.498;5.408;2022-10-28T03:37:12;16.30;99.90
19200;DHT22;9732;52.498;5.408;2022-10-28T03:39:40;16.30;99.90
19200;DHT22;9732;52.498;5.408;2022-10-28T03:42:07;16.30;99.90
19200;DHT22;9732;52.498;5.408;2022-10-28T03:44:34;16.30;99.90
19200;DHT22;9732;52.498;5.408;2022-10-28T03:47:01;16.30;99.90
19200;DHT22;9732;52.498;5.408;2022-10-28T03:49:27;16.30;99.90
19200;DHT22;9732;52.498;5.408;2022-10-28T03:51:54;16.30;99.90
19200;DHT22;9732;52.498;5.408;2022-10-28T03:54:21;16.30;99.90
19200;DHT22;9732;52.498;5.408;2022-10-28T03:56:49;16.30;99.90
19200;DHT22;9732;52.498;5.408;2022-10-28T03:59:15;16.30;99.90
19200;DHT22;9732;52.498;5.408;2022-10-28T04:01:42;16.30;99.90
19200;DHT22;9732;52.498;5.408;2022-10-28T04:04:09;16.30;99.90
19200;DHT22;9732;52.498;5.408;2022-10-28T04:06:35;16.30;99.90
19200;DHT22;9732;52.498;5.408;2022-10-28T04:09:02;16.30;99.90
19200;DHT22;9732;52.498;5.408;2022-10-28T04:11:29;16.30;99.90
19200;DHT22;9732;52.498;5.408;2022-10-28T04:13:57;16.30;99.90
19200;DHT22;9732;52.498;5.408;2022-10-28T04:16:24;16.20;99.90
19200;DHT22;9732;52.498;5.408;2022-10-28T04:18:51;16.20;99.90
19200;DHT22;9732;52.498;5.408;2022-10-28T04:21:17;16.20;99.90
19200;DHT22;9732;52.498;5.408;2022-10-28T04:23:44;16.20;99.90
19200;DHT22;9732;52.498;5.408;2022-10-28T04:26:11;16.20;99.90
19200;DHT22;9732;52.498;5.408;2022-10-28T04:28:38;16.20;99.90
19200;DHT22;9732;52.498;5.408;2022-10-28T04:31:06;16.20;99.90
19200;DHT22;9732;52.498;5.408;2022-10-28T04:33:34;16.20;99.90
19200;DHT22;9732;52.498;5.408;2022-10-28T04:36:01;16.20;99.90
19200;DHT22;9732;52.498;5.408;2022-10-28T04:38:27;16.30;99.90
19200;DHT22;9732;52.498;5.408;2022-10-28T04:40:54;16.30;99.90
19200;DHT22;9732;52.498;5.408;2022-10-28T04:43:21;16.20;99.90
19200;DHT22;9732;52.498;5.408;2022-10-28T04:45:48;16.20;99.90
19200;DHT22;9732;52.498;5.408;2022-10-28T04:48:16;16.20;99.90
19200;DHT22;9732;52.498;5.408;2022-10-28T04:50:44;16.30;99.90
19200;DHT22;9732;52.498;5.408;2022-10-28T04:53:11;16.20;99.90
19200;DHT22;9732;52.498;5.408;2022-10-28T04:55:38;16.30;99.90
19200;DHT22;9732;52.498;5.408;2022-10-28T04:58:05;16.30;99.90
19200;DHT22;9732;52.498;5.408;2022-10-28T05:00:31;16.30;99.90
19200;DHT22;9732;52.498;5.408;2022-10-28T05:03:00;16.30;99.90
19200;DHT22;9732;52.498;5.408;2022-10-28T05:05:28;16.30;99.90
19200;DHT22;9732;52.498;5.408;2022-10-28T05:07:55;16.30;99.90
19200;DHT22;9732;52.498;5.408;2022-10-28T05:10:22;16.30;99.90
19200;DHT22;9732;52.498;5.408;2022-10-28T05:12:49;16.30;99.90
19200;DHT22;9732;52.498;5.408;2022-10-28T05:15:15;16.30;99.90
19200;DHT22;9732;52.498;5.408;2022-10-28T05:17:43;16.30;99.90
19200;DHT22;9732;52.498;5.408;2022-10-28T05:20:14;16.30;99.90
19200;DHT22;9732;52.498;5.408;2022-10-28T05:22:50;16.20;99.90
19200;DHT22;9732;52.498;5.408;2022-10-28T05:25:18;16.30;99.90
19200;DHT22;9732;52.498;5.408;2022-10-28T05:27:45;16.20;99.90
19200;DHT22;9732;52.498;5.408;2022-10-28T05:30:12;16.20;99.90
19200;DHT22;9732;52.498;5.408;2022-10-28T05:32:39;16.20;99.90
19200;DHT22;9732;52.498;5.408;2022-10-28T05:35:07;16.30;99.90
19200;DHT22;9732;52.498;5.408;2022-10-28T05:37:34;16.20;99.90
19200;DHT22;9732;52.498;5.408;2022-10-28T05:40:03;16.20;99.90
19200;DHT22;9732;52.498;5.408;2022-10-28T05:42:30;16.20;99.90
19200;DHT22;9732;52.498;5.408;2022-10-28T05:44:57;16.20;99.90
19200;DHT22;9732;52.498;5.408;2022-10-28T05:47:23;16.20;99.90
19200;DHT22;9732;52.498;5.408;2022-10-28T05:49:50;16.20;99.90
19200;DHT22;9732;52.498;5.408;2022-10-28T05:52:17;16.20;99.90
19200;DHT22;9732;52.498;5.408;2022-10-28T05:54:44;16.20;99.90
19200;DHT22;9732;52.498;5.408;2022-10-28T05:57:12;16.10;99.90
19200;DHT22;9732;52.498;5.408;2022-10-28T05:59:38;16.10;99.90
19200;DHT22;9732;52.498;5.408;2022-10-28T06:02:05;16.10;99.90
19200;DHT22;9732;52.498;5.408;2022-10-28T06:04:32;16.10;99.90
19200;DHT22;9732;52.498;5.408;2022-10-28T06:06:58;16.10;99.90
19200;DHT22;9732;52.498;5.408;2022-10-28T06:09:26;16.00;99.90
19200;DHT22;9732;52.498;5.408;2022-10-28T06:11:53;16.00;99.90
19200;DHT22;9732;52.498;5.408;2022-10-28T06:14:21;16.00;99.90
19200;DHT22;9732;52.498;5.408;2022-10-28T06:16:47;16.00;99.90
19200;DHT22;9732;52.498;5.408;2022-10-28T06:19:14;16.00;99.90
19200;DHT22;9732;52.498;5.408;2022-10-28T06:21:41;16.00;99.90
19200;DHT22;9732;52.498;5.408;2022-10-28T06:24:08;16.00;99.90
19200;DHT22;9732;52.498;5.408;2022-10-28T06:26:35;16.00;99.90
19200;DHT22;9732;52.498;5.408;2022-10-28T06:29:01;15.90;99.90
19200;DHT22;9732;52.498;5.408;2022-10-28T06:31:29;16.00;99.90
19200;DHT22;9732;52.498;5.408;2022-10-28T06:33:57;15.90;99.90
19200;DHT22;9732;52.498;5.408;2022-10-28T06:36:24;16.00;99.90
19200;DHT22;9732;52.498;5.408;2022-10-28T06:38:52;15.90;99.90
19200;DHT22;9732;52.498;5.408;2022-10-28T06:41:19;15.90;99.90
19200;DHT22;9732;52.498;5.408;2022-10-28T06:43:45;15.90;99.90
19200;DHT22;9732;52.498;5.408;2022-10-28T06:46:12;15.90;99.90
19200;DHT22;9732;52.498;5.408;2022-10-28T06:48:40;15.90;99.90
19200;DHT22;9732;52.498;5.408;2022-10-28T06:51:07;15.90;99.90
19200;DHT22;9732;52.498;5.408;2022-10-28T06:53:34;15.90;99.90
19200;DHT22;9732;52.498;5.408;2022-10-28T06:56:00;15.90;99.90
19200;DHT22;9732;52.498;5.408;2022-10-28T06:58:27;15.90;99.90
19200;DHT22;9732;52.498;5.408;2022-10-28T07:00:54;15.90;99.90
19200;DHT22;9732;52.498;5.408;2022-10-28T07:03:21;15.90;99.90
19200;DHT22;9732;52.498;5.408;2022-10-28T07:05:49;15.90;99.90
19200;DHT22;9732;52.498;5.408;2022-10-28T07:08:16;15.90;99.90
19200;DHT22;9732;52.498;5.408;2022-10-28T07:10:43;15.90;99.90
19200;DHT22;9732;52.498;5.408;2022-10-28T07:13:10;16.00;99.90
19200;DHT22;9732;52.498;5.408;2022-10-28T07:15:37;16.00;99.90
19200;DHT22;9732;52.498;5.408;2022-10-28T07:18:04;16.00;99.90
19200;DHT22;9732;52.498;5.408;2022-10-28T07:20:31;16.00;99.90
19200;DHT22;9732;52.498;5.408;2022-10-28T07:23:00;16.00;99.90
19200;DHT22;9732;52.498;5.408;2022-10-28T07:25:29;16.10;99.90
19200;DHT22;9732;52.498;5.408;2022-10-28T07:27:56;16.10;99.90
19200;DHT22;9732;52.498;5.408;2022-10-28T07:30:23;16.10;99.90
19200;DHT22;9732;52.498;5.408;2022-10-28T07:32:50;16.20;99.90
19200;DHT22;9732;52.498;5.408;2022-10-28T07:35:16;16.20;99.90
19200;DHT22;9732;52.498;5.408;2022-10-28T07:37:43;16.20;99.90
19200;DHT22;9732;52.498;5.408;2022-10-28T07:40:12;16.20;99.90
19200;DHT22;9732;52.498;5.408;2022-10-28T07:42:39;16.30;99.90
19200;DHT22;9732;52.498;5.408;2022-10-28T07:45:06;16.30;99.90
19200;DHT22;9732;52.498;5.408;2022-10-28T07:47:33;16.30;99.90
19200;DHT22;9732;52.498;5.408;2022-10-28T07:50:00;16.30;99.90
19200;DHT22;9732;52.498;5.408;2022-10-28T07:52:26;16.40;99.90
19200;DHT22;9732;52.498;5.408;2022-10-28T07:54:53;16.40;99.90
19200;DHT22;9732;52.498;5.408;2022-10-28T07:57:24;16.50;99.90
19200;DHT22;9732;52.498;5.408;2022-10-28T07:59:51;16.50;99.90
19200;DHT22;9732;52.498;5.408;2022-10-28T08:02:19;16.60;99.90
19200;DHT22;9732;52.498;5.408;2022-10-28T08:04:46;16.60;99.90
19200;DHT22;9732;52.498;5.408;2022-10-28T08:07:14;16.70;99.90
19200;DHT22;9732;52.498;5.408;2022-10-28T08:09:41;16.70;99.90
19200;DHT22;9732;52.498;5.408;2022-10-28T08:12:09;16.80;99.90
19200;DHT22;9732;52.498;5.408;2022-10-28T08:14:39;16.80;99.90
19200;DHT22;9732;52.498;5.408;2022-10-28T08:17:06;16.90;99.90
19200;DHT22;9732;52.498;5.408;2022-10-28T08:19:33;17.00;99.90
19200;DHT22;9732;52.498;5.408;2022-10-28T08:22:00;17.00;99.90
19200;DHT22;9732;52.498;5.408;2022-10-28T08:24:27;17.10;99.90
19200;DHT22;9732;52.498;5.408;2022-10-28T08:26:54;17.20;99.90
19200;DHT22;9732;52.498;5.408;2022-10-28T08:29:20;17.20;99.90
19200;DHT22;9732;52.498;5.408;2022-10-28T08:31:48;17.20;99.90
19200;DHT22;9732;52.498;5.408;2022-10-28T08:34:15;17.20;99.90
19200;DHT22;9732;52.498;5.408;2022-10-28T08:36:42;17.20;99.90
19200;DHT22;9732;52.498;5.408;2022-10-28T08:39:08;17.20;99.90
19200;DHT22;9732;52.498;5.408;2022-10-28T08:41:38;17.30;99.90
19200;DHT22;9732;52.498;5.408;2022-10-28T08:44:47;17.20;99.90
19200;DHT22;9732;52.498;5.408;2022-10-28T08:47:27;17.20;99.90
19200;DHT22;9732;52.498;5.408;2022-10-28T08:50:02;17.20;99.90
19200;DHT22;9732;52.498;5.408;2022-10-28T08:52:37;17.20;99.90
19200;DHT22;9732;52.498;5.408;2022-10-28T08:55:10;17.10;99.90
19200;DHT22;9732;52.498;5.408;2022-10-28T08:57:40;17.20;99.90
19200;DHT22;9732;52.498;5.408;2022-10-28T09:00:17;17.20;99.90
19200;DHT22;9732;52.498;5.408;2022-10-28T09:02:58;17.20;99.90
19200;DHT22;9732;52.498;5.408;2022-10-28T09:05:26;17.20;99.90
19200;DHT22;9732;52.498;5.408;2022-10-28T09:07:54;17.30;99.90
19200;DHT22;9732;52.498;5.408;2022-10-28T09:10:37;17.40;99.90
19200;DHT22;9732;52.498;5.408;2022-10-28T09:13:16;17.60;99.90
19200;DHT22;9732;52.498;5.408;2022-10-28T09:15:49;17.70;99.90
19200;DHT22;9732;52.498;5.408;2022-10-28T09:18:39;17.90;99.90
19200;DHT22;9732;52.498;5.408;2022-10-28T09:21:12;17.90;99.90
19200;DHT22;9732;52.498;5.408;2022-10-28T09:23:44;18.00;99.90
19200;DHT22;9732;52.498;5.408;2022-10-28T09:26:19;18.00;99.90
19200;DHT22;9732;52.498;5.408;2022-10-28T09:28:55;18.10;99.90
19200;DHT22;9732;52.498;5.408;2022-10-28T09:31:29;18.00;99.90
19200;DHT22;9732;52.498;5.408;2022-10-28T09:34:10;17.90;99.90
19200;DHT22;9732;52.498;5.408;2022-10-28T09:36:42;17.90;99.90
19200;DHT22;9732;52.498;5.408;2022-10-28T09:39:15;17.90;99.90
19200;DHT22;9732;52.498;5.408;2022-10-28T09:41:45;17.90;99.90
19200;DHT22;9732;52.498;5.408;2022-10-28T09:44:17;17.90;99.90
19200;DHT22;9732;52.498;5.408;2022-10-28T09:46:49;17.90;99.90
19200;DHT22;9732;52.498;5.408;2022-10-28T09:49:22;17.90;99.90
19200;DHT22;9732;52.498;5.408;2022-10-28T09:51:54;17.90;99.90
19200;DHT22;9732;52.498;5.408;2022-10-28T09:54:29;17.90;99.90
19200;DHT22;9732;52.498;5.408;2022-10-28T09:56:58;17.90;99.90
19200;DHT22;9732;52.498;5.408;2022-10-28T09:59:25;17.90;99.90
19200;DHT22;9732;52.498;5.408;2022-10-28T10:01:52;17.90;99.90
19200;DHT22;9732;52.498;5.408;2022-10-28T10:04:22;17.90;99.90
19200;DHT22;9732;52.498;5.408;2022-10-28T10:06:51;17.90;99.90
19200;DHT22;9732;52.498;5.408;2022-10-28T10:09:22;17.90;99.90
19200;DHT22;9732;52.498;5.408;2022-10-28T10:11:52;18.00;99.90
19200;DHT22;9732;52.498;5.408;2022-10-28T10:14:25;18.00;99.90
19200;DHT22;9732;52.498;5.408;2022-10-28T10:16:56;18.00;99.90
19200;DHT22;9732;52.498;5.408;2022-10-28T10:19:25;18.00;99.90
19200;DHT22;9732;52.498;5.408;2022-10-28T10:21:54;18.00;99.90
19200;DHT22;9732;52.498;5.408;2022-10-28T10:24:22;18.10;99.90
19200;DHT22;9732;52.498;5.408;2022-10-28T10:26:49;18.10;99.90
19200;DHT22;9732;52.498;5.408;2022-10-28T10:29:18;18.10;99.90
19200;DHT22;9732;52.498;5.408;2022-10-28T10:31:47;18.20;99.90
19200;DHT22;9732;52.498;5.408;2022-10-28T10:34:22;18.20;99.90
19200;DHT22;9732;52.498;5.408;2022-10-28T10:36:54;18.30;99.90
19200;DHT22;9732;52.498;5.408;2022-10-28T10:39:23;18.30;99.90
19200;DHT22;9732;52.498;5.408;2022-10-28T10:41:53;18.30;99.90
19200;DHT22;9732;52.498;5.408;2022-10-28T10:44:29;18.40;99.90
19200;DHT22;9732;52.498;5.408;2022-10-28T10:47:18;18.40;99.90
19200;DHT22;9732;52.498;5.408;2022-10-28T10:49:47;18.40;99.90
19200;DHT22;9732;52.498;5.408;2022-10-28T10:52:20;18.50;99.90
19200;DHT22;9732;52.498;5.408;2022-10-28T10:55:00;18.50;99.90
19200;DHT22;9732;52.498;5.408;2022-10-28T10:57:27;18.50;99.90
19200;DHT22;9732;52.498;5.408;2022-10-28T10:59:55;18.60;99.90
19200;DHT22;9732;52.498;5.408;2022-10-28T11:02:25;18.60;99.90
19200;DHT22;9732;52.498;5.408;2022-10-28T11:04:55;18.60;99.90
19200;DHT22;9732;52.498;5.408;2022-10-28T11:07:24;18.70;99.90
19200;DHT22;9732;52.498;5.408;2022-10-28T11:09:53;18.80;99.90
19200;DHT22;9732;52.498;5.408;2022-10-28T11:12:26;18.80;99.90
19200;DHT22;9732;52.498;5.408;2022-10-28T11:14:55;18.90;99.90
19200;DHT22;9732;52.498;5.408;2022-10-28T11:17:24;18.90;99.90
19200;DHT22;9732;52.498;5.408;2022-10-28T11:19:54;18.90;99.90
19200;DHT22;9732;52.498;5.408;2022-10-28T11:22:35;18.90;99.90
19200;DHT22;9732;52.498;5.408;2022-10-28T11:25:24;19.00;99.90
19200;DHT22;9732;52.498;5.408;2022-10-28T11:28:02;19.00;99.90
19200;DHT22;9732;52.498;5.408;2022-10-28T11:30:39;19.00;99.90
19200;DHT22;9732;52.498;5.408;2022-10-28T11:33:12;19.00;99.90
19200;DHT22;9732;52.498;5.408;2022-10-28T11:35:54;19.10;99.90
19200;DHT22;9732;52.498;5.408;2022-10-28T11:41:39;19.00;99.90
19200;DHT22;9732;52.498;5.408;2022-10-28T11:44:20;19.10;99.90
19200;DHT22;9732;52.498;5.408;2022-10-28T11:46:57;19.10;99.90
19200;DHT22;9732;52.498;5.408;2022-10-28T11:49:46;19.10;99.90
19200;DHT22;9732;52.498;5.408;2022-10-28T11:52:33;19.10;99.90
19200;DHT22;9732;52.498;5.408;2022-10-28T11:55:15;19.10;99.90
19200;DHT22;9732;52.498;5.408;2022-10-28T11:57:53;19.10;99.90
19200;DHT22;9732;52.498;5.408;2022-10-28T12:00:34;19.10;99.90
19200;DHT22;9732;52.498;5.408;2022-10-28T12:03:16;19.10;99.90
19200;DHT22;9732;52.498;5.408;2022-10-28T12:05:51;19.10;99.90
19200;DHT22;9732;52.498;5.408;2022-10-28T12:08:32;19.10;99.90
19200;DHT22;9732;52.498;5.408;2022-10-28T12:11:12;19.10;99.90
19200;DHT22;9732;52.498;5.408;2022-10-28T12:13:49;19.20;99.90
19200;DHT22;9732;52.498;5.408;2022-10-28T12:16:25;19.20;99.90
19200;DHT22;9732;52.498;5.408;2022-10-28T12:18:57;19.30;99.90
19200;DHT22;9732;52.498;5.408;2022-10-28T12:21:29;19.30;99.90
19200;DHT22;9732;52.498;5.408;2022-10-28T12:23:58;19.40;99.90
19200;DHT22;9732;52.498;5.408;2022-10-28T12:26:37;19.40;99.90
19200;DHT22;9732;52.498;5.408;2022-10-28T12:29:11;19.40;99.90
19200;DHT22;9732;52.498;5.408;2022-10-28T12:31:44;19.50;99.90
19200;DHT22;9732;52.498;5.408;2022-10-28T12:34:15;19.50;99.90
19200;DHT22;9732;52.498;5.408;2022-10-28T12:36:47;19.50;99.90
19200;DHT22;9732;52.498;5.408;2022-10-28T12:39:18;19.60;99.90
19200;DHT22;9732;52.498;5.408;2022-10-28T12:41:54;19.60;99.90
19200;DHT22;9732;52.498;5.408;2022-10-28T12:44:23;19.70;99.90
19200;DHT22;9732;52.498;5.408;2022-10-28T12:47:00;19.60;99.90
19200;DHT22;9732;52.498;5.408;2022-10-28T12:49:36;19.60;99.90
19200;DHT22;9732;52.498;5.408;2022-10-28T12:52:16;19.60;99.90
19200;DHT22;9732;52.498;5.408;2022-10-28T12:54:53;19.60;99.90
19200;DHT22;9732;52.498;5.408;2022-10-28T12:57:24;19.50;99.90
19200;DHT22;9732;52.498;5.408;2022-10-28T12:59:53;19.50;99.90
19200;DHT22;9732;52.498;5.408;2022-10-28T13:02:36;19.50;99.90
19200;DHT22;9732;52.498;5.408;2022-10-28T13:05:04;19.40;99.90
19200;DHT22;9732;52.498;5.408;2022-10-28T13:07:55;19.40;99.90
19200;DHT22;9732;52.498;5.408;2022-10-28T13:10:31;19.40;99.90
19200;DHT22;9732;52.498;5.408;2022-10-28T13:13:22;19.30;99.90
19200;DHT22;9732;52.498;5.408;2022-10-28T13:19:27;19.30;99.90
19200;DHT22;9732;52.498;5.408;2022-10-28T13:22:19;19.30;99.90
19200;DHT22;9732;52.498;5.408;2022-10-28T13:24:57;19.30;99.90
19200;DHT22;9732;52.498;5.408;2022-10-28T13:27:29;19.30;99.90
19200;DHT22;9732;52.498;5.408;2022-10-28T13:29:59;19.30;99.90
19200;DHT22;9732;52.498;5.408;2022-10-28T13:32:32;19.30;99.90
19200;DHT22;9732;52.498;5.408;2022-10-28T13:35:00;19.40;99.90
19200;DHT22;9732;52.498;5.408;2022-10-28T13:37:36;19.40;99.90
19200;DHT22;9732;52.498;5.408;2022-10-28T13:40:06;19.40;99.90
19200;DHT22;9732;52.498;5.408;2022-10-28T13:42:46;19.40;99.90
19200;DHT22;9732;52.498;5.408;2022-10-28T13:45:49;19.40;99.90
19200;DHT22;9732;52.498;5.408;2022-10-28T13:48:44;19.50;99.90
19200;DHT22;9732;52.498;5.408;2022-10-28T13:51:31;19.50;99.90
19200;DHT22;9732;52.498;5.408;2022-10-28T13:53:58;19.50;99.90
19200;DHT22;9732;52.498;5.408;2022-10-28T13:56:36;19.50;99.90
19200;DHT22;9732;52.498;5.408;2022-10-28T13:59:17;19.50;99.90
19200;DHT22;9732;52.498;5.408;2022-10-28T14:01:53;19.50;99.90
19200;DHT22;9732;52.498;5.408;2022-10-28T14:04:26;19.40;99.90
19200;DHT22;9732;52.498;5.408;2022-10-28T14:09:50;19.40;99.90
19200;DHT22;9732;52.498;5.408;2022-10-28T14:12:24;19.40;99.90
19200;DHT22;9732;52.498;5.408;2022-10-28T14:15:15;19.40;99.90
19200;DHT22;9732;52.498;5.408;2022-10-28T14:17:48;19.40;99.90
19200;DHT22;9732;52.498;5.408;2022-10-28T14:20:23;19.40;99.90
19200;DHT22;9732;52.498;5.408;2022-10-28T14:22:51;19.40;99.90
19200;DHT22;9732;52.498;5.408;2022-10-28T14:25:57;19.40;99.90
19200;DHT22;9732;52.498;5.408;2022-10-28T14:28:53;19.40;99.90
19200;DHT22;9732;52.498;5.408;2022-10-28T14:31:48;19.40;99.90
19200;DHT22;9732;52.498;5.408;2022-10-28T14:34:38;19.40;99.90
19200;DHT22;9732;52.498;5.408;2022-10-28T14:37:24;19.40;99.90
19200;DHT22;9732;52.498;5.408;2022-10-28T14:40:13;19.40;99.90
19200;DHT22;9732;52.498;5.408;2022-10-28T14:42:55;19.40;99.90
19200;DHT22;9732;52.498;5.408;2022-10-28T14:45:32;19.40;99.90
19200;DHT22;9732;52.498;5.408;2022-10-28T14:48:21;19.40;99.90
19200;DHT22;9732;52.498;5.408;2022-10-28T14:50:55;19.40;99.90
19200;DHT22;9732;52.498;5.408;2022-10-28T14:53:25;19.30;99.90
19200;DHT22;9732;52.498;5.408;2022-10-28T14:55:58;19.30;99.90
19200;DHT22;9732;52.498;5.408;2022-10-28T14:58:28;19.30;99.90
19200;DHT22;9732;52.498;5.408;2022-10-28T15:01:05;19.20;99.90
19200;DHT22;9732;52.498;5.408;2022-10-28T15:03:37;19.20;99.90
19200;DHT22;9732;52.498;5.408;2022-10-28T15:06:33;19.20;99.90
19200;DHT22;9732;52.498;5.408;2022-10-28T15:09:05;19.10;99.90
19200;DHT22;9732;52.498;5.408;2022-10-28T15:11:33;19.10;99.90
19200;DHT22;9732;52.498;5.408;2022-10-28T15:14:13;19.10;99.90
19200;DHT22;9732;52.498;5.408;2022-10-28T15:16:45;19.00;99.90
19200;DHT22;9732;52.498;5.408;2022-10-28T15:19:17;19.00;99.90
19200;DHT22;9732;52.498;5.408;2022-10-28T15:22:09;19.00;99.90
19200;DHT22;9732;52.498;5.408;2022-10-28T15:24:37;19.00;99.90
19200;DHT22;9732;52.498;5.408;2022-10-28T15:27:04;18.90;99.90
19200;DHT22;9732;52.498;5.408;2022-10-28T15:29:31;18.90;99.90
19200;DHT22;9732;52.498;5.408;2022-10-28T15:35:35;18.80;99.90
19200;DHT22;9732;52.498;5.408;2022-10-28T15:38:23;18.70;99.90
19200;DHT22;9732;52.498;5.408;2022-10-28T15:40:51;18.80;99.90
19200;DHT22;9732;52.498;5.408;2022-10-28T15:43:18;18.80;99.90
19200;DHT22;9732;52.498;5.408;2022-10-28T15:45:46;18.70;99.90
19200;DHT22;9732;52.498;5.408;2022-10-28T15:48:19;18.70;99.90
19200;DHT22;9732;52.498;5.408;2022-10-28T15:51:09;18.60;99.90
19200;DHT22;9732;52.498;5.408;2022-10-28T15:53:39;18.60;99.90
19200;DHT22;9732;52.498;5.408;2022-10-28T15:56:12;18.70;99.90
19200;DHT22;9732;52.498;5.408;2022-10-28T15:58:43;18.60;99.90
19200;DHT22;9732;52.498;5.408;2022-10-28T16:01:27;18.60;99.90
19200;DHT22;9732;52.498;5.408;2022-10-28T16:03:54;18.60;99.90
19200;DHT22;9732;52.498;5.408;2022-10-28T16:06:23;18.60;99.90
19200;DHT22;9732;52.498;5.408;2022-10-28T16:09:04;18.50;99.90
19200;DHT22;9732;52.498;5.408;2022-10-28T16:11:33;18.60;99.90
19200;DHT22;9732;52.498;5.408;2022-10-28T16:14:14;18.50;99.90
19200;DHT22;9732;52.498;5.408;2022-10-28T16:16:44;18.50;99.90
19200;DHT22;9732;52.498;5.408;2022-10-28T16:19:18;18.50;99.90
19200;DHT22;9732;52.498;5.408;2022-10-28T16:21:48;18.40;99.90
19200;DHT22;9732;52.498;5.408;2022-10-28T16:24:17;18.40;99.90
19200;DHT22;9732;52.498;5.408;2022-10-28T16:26:43;18.40;99.90
19200;DHT22;9732;52.498;5.408;2022-10-28T16:29:10;18.40;99.90
19200;DHT22;9732;52.498;5.408;2022-10-28T16:31:37;18.40;99.90